Terminal Aerodrome Forecast
Issued by NWS Shreveport, LA

Home | Current Version | Previous Version | Text Only | Print | Product List | Glossary On
Versions: 1 2 3 4 5 6 7 8 9 10 11 12 13 14
000
FTUS44 KSHV 051135
TAFGGG
TAF
KGGG 051135Z 0512/0612 19004KT P6SM SCT110
     FM051500 22005KT P6SM SCT025 SCT110
     FM051700 19006KT P6SM SCT045
     FM060200 15004KT P6SM FEW070 SCT250
     FM060600 16003KT P6SM SCT250=

USA.gov is the U.S. government's official web portal to all federal, state and local government web resources and services.